createdAt,value
2017-09-30T00:03:22.221Z,13.00
2017-09-30T00:08:23.244Z,13.00
2017-09-30T00:13:24.288Z,13.00
2017-09-30T00:18:26.066Z,12.80
2017-09-30T00:23:27.850Z,12.60
2017-09-30T00:28:28.878Z,12.60
2017-09-30T00:33:29.933Z,12.40
2017-09-30T00:38:30.993Z,12.20
2017-09-30T00:43:32.054Z,11.90
2017-09-30T00:48:33.138Z,11.70
2017-09-30T00:53:34.261Z,11.50
2017-09-30T00:58:35.314Z,11.50
2017-09-30T01:03:36.346Z,11.30
2017-09-30T01:08:37.396Z,11.30
2017-09-30T01:13:38.428Z,11.20
2017-09-30T01:18:39.616Z,11.20
2017-09-30T01:23:40.816Z,11.10
2017-09-30T01:28:42.624Z,11.00
2017-09-30T01:33:43.678Z,10.90
2017-09-30T01:38:44.717Z,11.00
2017-09-30T01:43:45.816Z,10.90
2017-09-30T01:48:46.866Z,10.80
2017-09-30T01:53:47.918Z,10.80
2017-09-30T01:58:48.957Z,10.70
2017-09-30T02:03:50.753Z,10.70
2017-09-30T02:08:51.801Z,10.70
2017-09-30T02:13:52.871Z,10.80
2017-09-30T02:18:53.916Z,10.80
2017-09-30T02:23:55.716Z,10.90
2017-09-30T02:28:56.758Z,10.90
2017-09-30T02:33:57.805Z,10.90
2017-09-30T02:38:58.840Z,10.90
2017-09-30T02:43:59.880Z,10.90
2017-09-30T02:49:00.914Z,10.90
2017-09-30T02:54:01.986Z,10.90
2017-09-30T02:59:03.029Z,10.90
2017-09-30T03:04:04.065Z,10.80
2017-09-30T03:09:05.100Z,10.70
2017-09-30T03:14:06.881Z,10.50
2017-09-30T03:19:08.667Z,10.40
2017-09-30T03:24:09.701Z,10.40
2017-09-30T03:29:10.859Z,10.40
2017-09-30T03:34:12.087Z,10.30
2017-09-30T03:39:13.985Z,10.30
2017-09-30T03:44:15.121Z,10.30
2017-09-30T03:49:16.286Z,10.30
2017-09-30T03:54:17.403Z,10.20
2017-09-30T03:59:18.550Z,10.20
2017-09-30T04:04:19.672Z,10.20
2017-09-30T04:09:20.799Z,10.20
2017-09-30T04:14:21.881Z,10.40
2017-09-30T04:19:22.999Z,10.50
2017-09-30T04:24:24.092Z,10.50
2017-09-30T04:29:25.169Z,10.60
2017-09-30T04:34:26.442Z,10.60
2017-09-30T04:39:27.558Z,10.60
2017-09-30T04:44:28.658Z,10.60
2017-09-30T04:49:29.781Z,10.60
2017-09-30T04:54:30.926Z,10.60
2017-09-30T04:59:32.029Z,10.60
2017-09-30T05:04:33.106Z,10.50
2017-09-30T05:09:35.931Z,10.80
2017-09-30T05:14:37.067Z,10.70
2017-09-30T05:19:38.164Z,11.00
2017-09-30T05:24:39.308Z,11.20
2017-09-30T05:29:41.161Z,11.60
2017-09-30T05:34:42.268Z,11.50
2017-09-30T05:39:44.124Z,12.00
2017-09-30T05:44:45.260Z,12.00
2017-09-30T05:49:46.395Z,12.30
2017-09-30T05:54:47.552Z,12.60
2017-09-30T05:59:48.706Z,12.70
2017-09-30T06:04:50.618Z,13.00
2017-09-30T06:09:51.734Z,13.00
2017-09-30T06:14:55.606Z,13.20
2017-09-30T06:19:58.651Z,13.40
2017-09-30T06:24:59.926Z,13.40
2017-09-30T06:30:01.078Z,13.40
2017-09-30T06:35:02.242Z,13.70
2017-09-30T06:40:03.342Z,13.70
2017-09-30T06:45:04.385Z,13.80
2017-09-30T06:50:05.689Z,13.70
2017-09-30T06:55:06.926Z,14.10
2017-09-30T07:00:08.033Z,14.30
2017-09-30T07:05:09.088Z,14.20
2017-09-30T07:10:10.206Z,14.30
2017-09-30T07:15:11.981Z,14.60
2017-09-30T07:20:13.033Z,14.60
2017-09-30T07:25:14.093Z,14.70
2017-09-30T07:30:15.151Z,15.20
2017-09-30T07:35:16.197Z,15.20
2017-09-30T07:40:17.245Z,15.50
2017-09-30T07:45:18.305Z,16.10
2017-09-30T07:50:19.377Z,16.50
2017-09-30T07:55:20.421Z,17.30
2017-09-30T08:00:21.486Z,18.00
2017-09-30T08:05:22.536Z,18.30
2017-09-30T08:10:23.598Z,17.50
2017-09-30T08:15:24.633Z,17.10
2017-09-30T08:20:25.760Z,16.80
2017-09-30T08:25:26.813Z,17.90
2017-09-30T08:30:28.653Z,18.80
2017-09-30T08:35:29.705Z,18.80
2017-09-30T08:40:30.757Z,18.80
2017-09-30T08:45:31.853Z,18.70
2017-09-30T08:50:33.637Z,17.30
2017-09-30T08:55:35.500Z,17.80
2017-09-30T09:00:37.377Z,17.70
2017-09-30T09:05:39.157Z,17.60
2017-09-30T09:10:40.953Z,18.30
2017-09-30T09:15:42.005Z,18.30
2017-09-30T09:20:43.125Z,19.70
2017-09-30T09:25:44.393Z,20.60
2017-09-30T09:30:45.458Z,20.20
2017-09-30T09:35:46.526Z,21.00
2017-09-30T09:40:48.383Z,20.70
2017-09-30T09:45:49.430Z,20.60
2017-09-30T09:50:50.481Z,19.60
2017-09-30T09:55:51.566Z,19.50
2017-09-30T10:00:53.396Z,19.90
2017-09-30T10:05:54.454Z,20.90
2017-09-30T10:10:55.501Z,21.90
2017-09-30T10:15:56.580Z,22.10
2017-09-30T10:20:57.669Z,21.80
2017-09-30T10:25:58.719Z,21.50
2017-09-30T10:30:59.767Z,21.10
2017-09-30T10:36:00.812Z,21.30
2017-09-30T10:41:01.867Z,21.70
2017-09-30T10:46:02.938Z,20.40
2017-09-30T10:51:04.037Z,20.10
2017-09-30T10:56:05.296Z,20.40
2017-09-30T11:01:07.112Z,21.50
2017-09-30T11:06:08.156Z,21.40
2017-09-30T11:11:09.234Z,21.40
2017-09-30T11:16:10.297Z,21.30
2017-09-30T11:21:11.347Z,21.60
2017-09-30T11:26:12.413Z,22.00
2017-09-30T11:31:13.475Z,22.00
2017-09-30T11:36:14.532Z,21.60
2017-09-30T11:41:15.575Z,21.20
2017-09-30T11:46:16.641Z,21.30
2017-09-30T11:51:17.712Z,21.80
2017-09-30T11:56:18.762Z,22.10
2017-09-30T12:01:19.815Z,21.80
2017-09-30T12:06:21.610Z,21.50
2017-09-30T12:11:23.436Z,22.40
2017-09-30T12:16:24.513Z,22.30
2017-09-30T12:21:25.593Z,22.10
2017-09-30T12:26:26.693Z,22.70
2017-09-30T12:31:28.481Z,22.70
2017-09-30T12:36:29.586Z,22.70
2017-09-30T12:41:30.641Z,23.60
2017-09-30T12:46:31.838Z,23.90
2017-09-30T12:51:32.943Z,24.00
2017-09-30T12:56:34.016Z,22.90
2017-09-30T13:01:35.080Z,23.10
2017-09-30T13:06:36.137Z,23.30
2017-09-30T13:11:37.184Z,23.30
2017-09-30T13:16:38.261Z,23.10
2017-09-30T13:21:39.326Z,23.80
2017-09-30T13:26:40.382Z,23.60
2017-09-30T13:31:41.460Z,23.10
2017-09-30T13:36:42.559Z,23.10
2017-09-30T13:41:43.622Z,23.40
2017-09-30T13:46:44.694Z,23.50
2017-09-30T13:51:45.882Z,23.50
2017-09-30T13:56:46.997Z,22.80
2017-09-30T14:01:48.091Z,23.00
2017-09-30T14:06:49.162Z,23.50
2017-09-30T14:11:50.274Z,22.90
2017-09-30T14:16:51.401Z,23.30
2017-09-30T14:21:52.448Z,22.70
2017-09-30T14:26:53.517Z,22.40
2017-09-30T14:31:55.340Z,22.70
2017-09-30T14:36:56.438Z,22.60
2017-09-30T14:41:57.562Z,22.40
2017-09-30T14:46:58.617Z,22.30
2017-09-30T14:51:59.731Z,22.10
2017-09-30T14:57:01.551Z,21.40
2017-09-30T15:02:02.622Z,21.40
2017-09-30T15:07:05.446Z,21.10
2017-09-30T15:12:06.531Z,21.10
2017-09-30T15:17:08.351Z,21.80
2017-09-30T15:22:09.420Z,21.80
2017-09-30T15:27:10.566Z,22.10
2017-09-30T15:32:13.353Z,21.50
2017-09-30T15:37:14.429Z,21.50
2017-09-30T15:42:16.209Z,20.90
2017-09-30T15:47:17.317Z,20.80
2017-09-30T15:52:18.412Z,20.50
2017-09-30T15:57:20.279Z,19.70
2017-09-30T16:02:21.592Z,19.70
2017-09-30T16:07:22.778Z,19.40
2017-09-30T16:12:24.651Z,18.90
2017-09-30T16:17:26.447Z,18.60
2017-09-30T16:22:27.532Z,18.50
2017-09-30T16:27:28.598Z,18.30
2017-09-30T16:32:29.679Z,18.10
2017-09-30T16:37:30.759Z,17.80
2017-09-30T16:42:32.582Z,17.10
2017-09-30T16:47:34.431Z,16.80
2017-09-30T16:52:35.607Z,16.80
2017-09-30T16:57:36.701Z,16.50
2017-09-30T17:02:37.767Z,16.30
2017-09-30T17:07:38.838Z,16.20
2017-09-30T17:12:40.639Z,15.90
2017-09-30T17:17:41.762Z,15.80
2017-09-30T17:22:42.831Z,15.80
2017-09-30T17:27:44.636Z,15.40
2017-09-30T17:32:45.693Z,15.40
2017-09-30T17:37:46.732Z,15.30
2017-09-30T17:42:49.089Z,15.10
2017-09-30T17:47:50.165Z,15.10
2017-09-30T17:52:51.973Z,14.80
2017-09-30T17:57:53.025Z,14.80
2017-09-30T18:02:54.063Z,14.70
2017-09-30T18:07:55.197Z,14.70
2017-09-30T18:12:56.258Z,14.80
2017-09-30T18:17:57.292Z,14.80
2017-09-30T18:22:58.325Z,14.90
2017-09-30T18:27:59.371Z,14.80
2017-09-30T18:33:01.145Z,14.80
2017-09-30T18:38:02.953Z,14.80
2017-09-30T18:43:04.024Z,14.80
2017-09-30T18:48:06.092Z,14.80
2017-09-30T18:53:07.385Z,14.70
2017-09-30T18:58:08.457Z,14.50
2017-09-30T19:03:09.607Z,14.40
2017-09-30T19:08:10.673Z,14.30
2017-09-30T19:13:11.717Z,14.20
2017-09-30T19:18:12.776Z,14.10
2017-09-30T19:23:13.875Z,14.00
2017-09-30T19:28:15.660Z,13.80
2017-09-30T19:33:16.743Z,13.80
2017-09-30T19:38:17.825Z,13.80
2017-09-30T19:43:18.862Z,13.70
2017-09-30T19:48:19.944Z,13.90
2017-09-30T19:53:21.246Z,13.90
2017-09-30T19:58:22.521Z,13.90
2017-09-30T20:03:23.563Z,13.90
2017-09-30T20:08:25.403Z,13.80
2017-09-30T20:13:26.625Z,13.80
2017-09-30T20:18:28.012Z,13.80
2017-09-30T20:23:29.438Z,13.80
2017-09-30T20:28:30.521Z,13.80
2017-09-30T20:33:32.096Z,13.80
2017-09-30T20:38:33.162Z,13.70
2017-09-30T20:43:34.262Z,13.60
2017-09-30T20:48:35.308Z,13.50
2017-09-30T20:53:36.501Z,13.50
2017-09-30T20:58:39.271Z,13.50
2017-09-30T21:03:41.048Z,13.50
2017-09-30T21:08:43.999Z,13.50
2017-09-30T21:13:45.117Z,13.50
2017-09-30T21:18:47.962Z,13.40
2017-09-30T21:23:49.052Z,13.40
2017-09-30T21:28:50.842Z,13.50
2017-09-30T21:33:53.277Z,13.50
2017-09-30T21:38:54.310Z,13.50
2017-09-30T21:43:56.147Z,13.40
2017-09-30T21:48:57.567Z,13.40
2017-09-30T21:53:58.613Z,13.30
2017-09-30T21:59:00.442Z,13.30
2017-09-30T22:04:01.504Z,13.30
2017-09-30T22:09:02.683Z,13.30
2017-09-30T22:14:03.921Z,13.40
2017-09-30T22:19:04.957Z,13.50
2017-09-30T22:24:06.051Z,13.60
2017-09-30T22:29:07.107Z,13.70
2017-09-30T22:34:08.197Z,13.80
2017-09-30T22:39:09.975Z,13.80
2017-09-30T22:44:11.748Z,13.80
2017-09-30T22:49:13.585Z,13.90
2017-09-30T22:54:14.655Z,13.90
2017-09-30T22:59:15.721Z,14.00
2017-09-30T23:04:16.771Z,14.00
2017-09-30T23:09:17.855Z,14.10
2017-09-30T23:14:19.638Z,14.30
2017-09-30T23:19:21.426Z,14.30
2017-09-30T23:24:22.489Z,14.30
2017-09-30T23:29:23.543Z,14.30
2017-09-30T23:34:24.593Z,14.30
2017-09-30T23:39:25.733Z,14.20
2017-09-30T23:44:27.529Z,14.10
2017-09-30T23:49:28.661Z,14.20
2017-09-30T23:54:29.721Z,14.00
2017-09-30T23:59:30.757Z,14.00
